createdAt,value
2023-04-21T00:00:27.518Z,8.27
2023-04-21T00:02:54.766Z,8.24
2023-04-21T00:05:22.353Z,8.24
2023-04-21T00:07:49.843Z,8.22
2023-04-21T00:10:16.913Z,8.18
2023-04-21T00:12:44.040Z,8.16
2023-04-21T00:15:11.404Z,8.18
2023-04-21T00:17:39.273Z,8.06
2023-04-21T00:20:07.192Z,8.06
2023-04-21T00:22:34.277Z,8.12
2023-04-21T00:25:04.653Z,8.05
2023-04-21T00:27:31.858Z,8.10
2023-04-21T00:29:58.952Z,8.08
2023-04-21T00:32:26.349Z,8.06
2023-04-21T00:34:53.471Z,7.92
2023-04-21T00:37:21.051Z,7.96
2023-04-21T00:39:48.118Z,7.92
2023-04-21T00:42:16.976Z,7.83
2023-04-21T00:44:44.209Z,7.88
2023-04-21T00:47:11.734Z,8.01
2023-04-21T00:49:48.594Z,7.89
2023-04-21T00:52:18.691Z,7.82
2023-04-21T00:54:49.855Z,7.75
2023-04-21T00:57:17.138Z,7.62
2023-04-21T00:59:44.412Z,7.45
2023-04-21T01:02:11.908Z,7.31
2023-04-21T01:04:40.275Z,7.22
2023-04-21T01:07:08.671Z,7.24
2023-04-21T01:09:35.950Z,7.21
2023-04-21T01:12:10.058Z,7.11
2023-04-21T01:14:39.133Z,7.20
2023-04-21T01:17:07.781Z,7.06
2023-04-21T01:19:40.633Z,7.07
2023-04-21T01:22:12.235Z,7.10
2023-04-21T01:24:44.967Z,7.00
2023-04-21T01:27:17.470Z,6.95
2023-04-21T01:29:49.091Z,6.82
2023-04-21T01:32:21.435Z,6.74
2023-04-21T01:34:49.549Z,6.69
2023-04-21T01:37:23.406Z,6.71
2023-04-21T01:39:57.118Z,6.63
2023-04-21T01:42:26.322Z,6.59
2023-04-21T01:44:54.590Z,6.64
2023-04-21T01:47:23.469Z,6.58
2023-04-21T01:49:51.347Z,6.49
2023-04-21T01:52:19.812Z,6.39
2023-04-21T01:54:46.895Z,6.35
2023-04-21T01:57:15.417Z,6.30
2023-04-21T01:59:43.416Z,6.22
2023-04-21T02:02:11.586Z,6.19
2023-04-21T02:04:39.185Z,6.13
2023-04-21T02:07:07.080Z,6.18
2023-04-21T02:09:37.071Z,6.16
2023-04-21T02:12:04.435Z,6.21
2023-04-21T02:14:31.650Z,6.19
2023-04-21T02:16:58.999Z,6.19
2023-04-21T02:19:26.297Z,6.20
2023-04-21T02:21:55.812Z,6.21
2023-04-21T02:24:23.160Z,6.23
2023-04-21T02:26:50.426Z,6.19
2023-04-21T02:29:20.946Z,6.11
2023-04-21T02:32:00.829Z,6.10
2023-04-21T02:34:32.848Z,6.06
2023-04-21T02:37:00.819Z,6.03
2023-04-21T02:39:28.207Z,6.03
2023-04-21T02:41:55.632Z,5.95
2023-04-21T02:44:22.872Z,5.94
2023-04-21T02:46:50.142Z,5.95
2023-04-21T02:49:21.051Z,5.92
2023-04-21T02:51:48.599Z,5.97
2023-04-21T02:54:15.784Z,5.99
2023-04-21T02:56:42.921Z,6.00
2023-04-21T02:59:11.497Z,6.03
2023-04-21T03:01:40.184Z,6.05
2023-04-21T03:04:09.138Z,6.08
2023-04-21T03:06:38.629Z,6.06
2023-04-21T03:09:11.299Z,6.03
2023-04-21T03:11:38.447Z,6.02
2023-04-21T03:14:05.685Z,5.99
2023-04-21T03:16:34.619Z,5.88
2023-04-21T03:19:02.208Z,5.92
2023-04-21T03:21:29.644Z,5.91
2023-04-21T03:23:56.753Z,5.95
2023-04-21T03:26:26.204Z,5.91
2023-04-21T03:29:02.138Z,5.90
2023-04-21T03:31:29.353Z,5.87
2023-04-21T03:33:57.514Z,5.82
2023-04-21T03:36:26.221Z,5.85
2023-04-21T03:38:56.452Z,5.77
2023-04-21T03:41:26.180Z,5.78
2023-04-21T03:43:53.477Z,5.69
2023-04-21T03:46:21.986Z,5.79
2023-04-21T03:48:51.970Z,5.68
2023-04-21T03:51:19.586Z,5.71
2023-04-21T03:53:47.201Z,5.67
2023-04-21T03:56:17.144Z,5.72
2023-04-21T03:58:45.418Z,5.79
2023-04-21T04:01:15.946Z,5.85
2023-04-21T04:03:43.400Z,5.77
2023-04-21T04:06:10.840Z,5.82
2023-04-21T04:08:38.385Z,5.68
2023-04-21T04:11:08.408Z,5.62
2023-04-21T04:13:38.579Z,5.64
2023-04-21T04:16:15.034Z,5.68
2023-04-21T04:18:51.384Z,5.73
2023-04-21T04:21:21.914Z,5.75
2023-04-21T04:24:03.361Z,5.69
2023-04-21T04:26:38.577Z,5.79
2023-04-21T04:29:10.676Z,5.77
2023-04-21T04:31:38.204Z,5.84
2023-04-21T04:34:05.354Z,5.85
2023-04-21T04:36:33.513Z,5.96
2023-04-21T04:39:00.610Z,6.08
2023-04-21T04:41:30.584Z,6.33
2023-04-21T04:44:00.888Z,6.36
2023-04-21T04:46:28.451Z,6.35
2023-04-21T04:48:55.577Z,6.48
2023-04-21T04:51:23.731Z,6.61
2023-04-21T04:53:50.950Z,6.79
2023-04-21T04:56:18.083Z,6.94
2023-04-21T04:58:47.957Z,7.12
2023-04-21T05:01:17.922Z,7.31
2023-04-21T05:03:45.991Z,7.43
2023-04-21T05:06:14.263Z,7.65
2023-04-21T05:08:41.666Z,7.64
2023-04-21T05:11:09.128Z,7.58
2023-04-21T05:13:39.026Z,7.70
2023-04-21T05:16:07.734Z,7.78
2023-04-21T05:18:34.772Z,7.88
2023-04-21T05:21:01.795Z,7.97
2023-04-21T05:23:28.952Z,7.97
2023-04-21T05:25:56.007Z,7.92
2023-04-21T05:28:23.269Z,7.91
2023-04-21T05:30:50.522Z,8.17
2023-04-21T05:33:20.626Z,8.11
2023-04-21T05:35:47.802Z,8.69
2023-04-21T05:38:15.270Z,9.78
2023-04-21T05:40:42.377Z,10.47
2023-04-21T05:43:09.494Z,11.16
2023-04-21T05:45:39.980Z,11.69
2023-04-21T05:48:07.209Z,11.71
2023-04-21T05:50:35.524Z,11.69
2023-04-21T05:53:02.621Z,11.82
2023-04-21T05:55:29.769Z,11.82
2023-04-21T05:57:56.969Z,11.64
2023-04-21T06:00:24.173Z,11.63
2023-04-21T06:02:51.477Z,11.46
2023-04-21T06:05:18.890Z,11.38
2023-04-21T06:07:46.035Z,11.35
2023-04-21T06:10:14.258Z,11.35
2023-04-21T06:12:41.353Z,11.53
2023-04-21T06:15:08.996Z,11.08
2023-04-21T06:17:36.158Z,10.96
2023-04-21T06:20:04.210Z,10.58
2023-04-21T06:22:31.695Z,10.73
2023-04-21T06:24:59.520Z,10.64
2023-04-21T06:27:27.738Z,10.59
2023-04-21T06:29:56.178Z,10.78
2023-04-21T06:32:23.330Z,10.99
2023-04-21T06:34:50.630Z,11.05
2023-04-21T06:37:18.146Z,11.24
2023-04-21T06:39:45.346Z,11.37
2023-04-21T06:42:12.493Z,11.47
2023-04-21T06:44:43.056Z,11.59
2023-04-21T06:47:10.279Z,11.52
2023-04-21T06:49:37.490Z,11.63
2023-04-21T06:52:04.925Z,12.03
2023-04-21T06:54:32.030Z,11.87
2023-04-21T06:56:59.186Z,12.01
2023-04-21T06:59:26.482Z,12.22
2023-04-21T07:01:53.708Z,12.20
2023-04-21T07:04:21.160Z,12.42
2023-04-21T07:06:49.227Z,12.21
2023-04-21T07:09:16.306Z,12.13
2023-04-21T07:11:43.413Z,12.16
2023-04-21T07:14:11.044Z,12.60
2023-04-21T07:16:38.193Z,13.42
2023-04-21T07:19:05.609Z,13.76
2023-04-21T07:21:36.168Z,13.97
2023-04-21T07:24:03.657Z,13.94
2023-04-21T07:26:30.979Z,13.99
2023-04-21T07:29:00.906Z,14.02
2023-04-21T07:31:28.062Z,13.50
2023-04-21T07:33:55.154Z,13.41
2023-04-21T07:36:22.305Z,13.38
2023-04-21T07:38:49.341Z,13.54
2023-04-21T07:41:16.413Z,13.21
2023-04-21T07:43:43.481Z,12.87
2023-04-21T07:46:13.274Z,12.78
2023-04-21T07:48:41.008Z,12.76
2023-04-21T07:51:08.188Z,12.92
2023-04-21T07:53:35.458Z,13.13
2023-04-21T07:56:02.787Z,13.28
2023-04-21T07:58:30.085Z,13.53
2023-04-21T08:00:57.529Z,13.65
2023-04-21T08:03:25.260Z,13.93
2023-04-21T08:05:52.698Z,14.14
2023-04-21T08:08:21.616Z,14.35
2023-04-21T08:10:48.935Z,14.71
2023-04-21T08:13:16.216Z,15.09
2023-04-21T08:15:43.424Z,15.40
2023-04-21T08:18:10.596Z,15.90
2023-04-21T08:20:37.869Z,15.79
2023-04-21T08:23:05.295Z,16.07
2023-04-21T08:25:32.558Z,16.15
2023-04-21T08:27:59.908Z,16.35
2023-04-21T08:30:28.369Z,16.25
2023-04-21T08:32:55.626Z,16.19
2023-04-21T08:35:25.897Z,16.01
2023-04-21T08:37:54.060Z,16.35
2023-04-21T08:40:22.704Z,16.37
2023-04-21T08:42:53.366Z,16.36
2023-04-21T08:45:20.731Z,16.73
2023-04-21T08:47:49.314Z,17.22
2023-04-21T08:50:16.465Z,17.38
2023-04-21T08:52:45.871Z,17.12
2023-04-21T08:55:13.596Z,17.16
2023-04-21T08:57:43.458Z,17.42
2023-04-21T09:00:11.787Z,17.51
2023-04-21T09:03:16.184Z,18.05
2023-04-21T09:06:07.808Z,18.51
2023-04-21T09:08:42.185Z,18.70
2023-04-21T09:11:14.439Z,18.77
2023-04-21T09:13:46.078Z,18.94
2023-04-21T09:16:23.924Z,18.49
2023-04-21T09:18:53.172Z,18.46
2023-04-21T09:21:32.331Z,18.61
2023-04-21T09:24:06.683Z,18.71
2023-04-21T09:26:35.184Z,19.21
2023-04-21T09:29:06.957Z,19.46
2023-04-21T09:31:36.343Z,19.85
2023-04-21T09:34:06.557Z,19.97
2023-04-21T09:36:34.015Z,20.06
2023-04-21T09:41:40.348Z,20.20
2023-04-21T09:44:10.274Z,19.77
2023-04-21T09:47:04.905Z,19.45
2023-04-21T09:49:35.887Z,19.34
2023-04-21T09:52:18.685Z,19.71
2023-04-21T09:54:54.862Z,20.22
2023-04-21T09:57:27.888Z,20.54
2023-04-21T10:00:00.150Z,20.15
2023-04-21T10:02:31.349Z,20.64
2023-04-21T10:04:58.882Z,20.51
2023-04-21T10:07:26.052Z,20.39
2023-04-21T10:09:56.664Z,20.60
2023-04-21T10:12:25.965Z,20.51
2023-04-21T10:14:54.615Z,20.76
2023-04-21T10:17:26.843Z,20.41
2023-04-21T10:19:57.371Z,20.46
2023-04-21T10:22:33.169Z,20.42
2023-04-21T10:25:03.469Z,20.72
2023-04-21T10:27:47.943Z,21.19
2023-04-21T10:30:23.302Z,19.33
2023-04-21T10:33:03.710Z,19.15
2023-04-21T10:36:08.272Z,19.83
2023-04-21T10:38:50.841Z,20.17
2023-04-21T10:41:29.426Z,20.58
2023-04-21T10:44:17.367Z,20.28
2023-04-21T10:46:58.597Z,20.91
2023-04-21T10:49:30.704Z,20.77
2023-04-21T10:52:02.620Z,20.58
2023-04-21T10:54:45.663Z,20.43
2023-04-21T10:57:18.744Z,20.68
2023-04-21T10:59:53.978Z,21.08
2023-04-21T11:02:27.733Z,21.30
2023-04-21T11:04:55.484Z,21.11
2023-04-21T11:07:24.976Z,21.42
2023-04-21T11:10:05.991Z,21.84
2023-04-21T11:12:42.468Z,22.28
2023-04-21T11:15:13.294Z,21.71
2023-04-21T11:17:47.262Z,22.05
2023-04-21T11:20:17.681Z,21.09
2023-04-21T11:22:46.639Z,20.18
2023-04-21T11:25:25.766Z,19.31
2023-04-21T11:28:00.014Z,19.04
2023-04-21T11:30:38.785Z,18.70
2023-04-21T11:33:06.250Z,19.42
2023-04-21T11:35:35.813Z,20.05
2023-04-21T11:38:06.184Z,19.53
2023-04-21T11:40:49.737Z,19.50
2023-04-21T11:43:21.301Z,19.33
2023-04-21T11:45:50.441Z,18.77
2023-04-21T11:48:19.719Z,18.25
2023-04-21T11:50:50.502Z,18.71
2023-04-21T11:53:28.076Z,19.41
2023-04-21T11:55:56.922Z,20.33
2023-04-21T11:58:24.221Z,20.88
2023-04-21T12:00:57.050Z,20.95
2023-04-21T12:03:28.425Z,20.87
2023-04-21T12:05:58.364Z,21.22
2023-04-21T12:08:33.094Z,21.49
2023-04-21T12:11:02.195Z,21.86
2023-04-21T12:13:30.831Z,22.24
2023-04-21T12:16:06.573Z,21.60
2023-04-21T12:18:36.864Z,21.24
2023-04-21T12:21:04.500Z,21.91
2023-04-21T12:23:34.373Z,21.56
2023-04-21T12:26:07.456Z,21.45
2023-04-21T12:28:34.835Z,20.72
2023-04-21T12:31:02.051Z,20.49
2023-04-21T12:33:32.274Z,20.68
2023-04-21T12:36:00.159Z,20.68
2023-04-21T12:38:39.526Z,20.88
2023-04-21T12:41:12.887Z,21.09
2023-04-21T12:43:40.572Z,20.86
2023-04-21T12:46:08.766Z,20.84
2023-04-21T12:48:38.602Z,20.75
2023-04-21T12:51:06.065Z,21.21
2023-04-21T12:53:39.952Z,21.34
2023-04-21T12:56:07.188Z,21.04
2023-04-21T12:58:34.385Z,21.33
2023-04-21T13:01:02.677Z,21.54
2023-04-21T13:03:30.033Z,21.71
2023-04-21T13:06:00.537Z,21.71
2023-04-21T13:08:30.370Z,21.65
2023-04-21T13:10:58.286Z,22.00
2023-04-21T13:13:26.566Z,21.55
2023-04-21T13:15:54.254Z,22.14
2023-04-21T13:18:21.341Z,22.46
2023-04-21T13:20:57.576Z,22.21
2023-04-21T13:23:30.772Z,22.60
2023-04-21T13:26:07.061Z,22.79
2023-04-21T13:28:35.038Z,22.52
2023-04-21T13:31:03.567Z,22.53
2023-04-21T13:33:34.915Z,21.56
2023-04-21T13:36:03.553Z,21.57
2023-04-21T13:38:30.890Z,20.85
2023-04-21T13:40:59.463Z,20.45
2023-04-21T13:43:28.304Z,20.23
2023-04-21T13:45:58.707Z,19.90
2023-04-21T13:48:26.805Z,19.89
2023-04-21T13:50:57.019Z,19.46
2023-04-21T13:53:25.152Z,18.91
2023-04-21T13:55:54.910Z,18.73
2023-04-21T13:58:24.527Z,18.67
2023-04-21T14:00:54.344Z,18.61
2023-04-21T14:03:24.562Z,18.76
2023-04-21T14:05:52.210Z,18.54
2023-04-21T14:08:30.050Z,18.72
2023-04-21T14:10:57.710Z,18.97
2023-04-21T14:13:37.519Z,18.93
2023-04-21T14:16:07.570Z,19.32
2023-04-21T14:18:35.031Z,19.08
2023-04-21T14:21:02.150Z,18.68
2023-04-21T14:23:32.015Z,18.75
2023-04-21T14:25:59.848Z,18.68
2023-04-21T14:28:32.726Z,18.63
2023-04-21T14:30:59.733Z,18.54
2023-04-21T14:33:27.279Z,18.71
2023-04-21T14:35:54.659Z,18.57
2023-04-21T14:38:21.869Z,18.48
2023-04-21T14:40:49.889Z,18.30
2023-04-21T14:43:19.015Z,18.18
2023-04-21T14:45:49.245Z,17.98
2023-04-21T14:48:16.573Z,17.70
2023-04-21T14:50:46.894Z,17.62
2023-04-21T14:53:14.416Z,17.91
2023-04-21T14:55:51.903Z,17.93
2023-04-21T14:58:20.137Z,18.00
2023-04-21T15:00:51.067Z,18.26
2023-04-21T15:03:20.389Z,17.97
2023-04-21T15:05:50.896Z,17.84
2023-04-21T15:08:21.204Z,17.66
2023-04-21T15:10:54.021Z,17.58
2023-04-21T15:13:47.378Z,17.37
2023-04-21T15:16:23.796Z,17.64
2023-04-21T15:18:52.257Z,18.09
2023-04-21T15:21:22.873Z,18.29
2023-04-21T15:23:50.345Z,18.23
2023-04-21T15:26:21.787Z,18.17
2023-04-21T15:28:50.912Z,18.20
2023-04-21T15:31:21.327Z,17.90
2023-04-21T15:33:49.235Z,17.88
2023-04-21T15:36:17.173Z,17.99
2023-04-21T15:38:45.202Z,18.17
2023-04-21T15:41:18.634Z,18.22
2023-04-21T15:43:52.133Z,18.20
2023-04-21T15:46:27.192Z,18.18
2023-04-21T15:48:54.591Z,18.10
2023-04-21T15:51:23.233Z,18.02
2023-04-21T15:53:50.498Z,17.98
2023-04-21T15:56:17.913Z,17.64
2023-04-21T15:58:48.221Z,17.41
2023-04-21T16:01:15.991Z,17.51
2023-04-21T16:03:46.448Z,17.68
2023-04-21T16:06:15.159Z,17.92
2023-04-21T16:08:42.517Z,17.81
2023-04-21T16:11:11.082Z,17.86
2023-04-21T16:13:38.287Z,17.47
2023-04-21T16:16:06.002Z,17.38
2023-04-21T16:18:35.931Z,17.29
2023-04-21T16:21:12.106Z,17.38
2023-04-21T16:23:40.350Z,17.51
2023-04-21T16:26:09.208Z,17.42
2023-04-21T16:28:38.245Z,17.53
2023-04-21T16:31:07.184Z,17.49
2023-04-21T16:33:36.492Z,17.25
2023-04-21T16:36:06.962Z,17.03
2023-04-21T16:38:37.138Z,16.88
2023-04-21T16:41:04.399Z,16.63
2023-04-21T16:43:35.061Z,16.34
2023-04-21T16:46:05.022Z,16.34
2023-04-21T16:48:35.747Z,16.27
2023-04-21T16:51:03.069Z,16.31
2023-04-21T16:53:30.399Z,16.30
2023-04-21T16:56:02.224Z,16.31
2023-04-21T16:58:34.849Z,16.31
2023-04-21T17:01:02.840Z,16.29
2023-04-21T17:03:33.528Z,16.29
2023-04-21T17:06:01.626Z,16.29
2023-04-21T17:08:28.857Z,16.23
2023-04-21T17:11:00.288Z,16.09
2023-04-21T17:13:27.897Z,16.08
2023-04-21T17:15:55.478Z,16.06
2023-04-21T17:18:22.644Z,15.99
2023-04-21T17:20:50.980Z,15.88
2023-04-21T17:23:18.390Z,15.88
2023-04-21T17:25:52.008Z,15.77
2023-04-21T17:28:19.129Z,15.71
2023-04-21T17:30:57.599Z,15.70
2023-04-21T17:33:37.013Z,15.61
2023-04-21T17:36:33.166Z,15.44
2023-04-21T17:39:01.031Z,15.39
2023-04-21T17:41:40.534Z,15.21
2023-04-21T17:44:08.251Z,15.15
2023-04-21T17:46:36.942Z,15.02
2023-04-21T17:49:04.490Z,14.98
2023-04-21T17:51:41.272Z,14.98
2023-04-21T17:54:13.118Z,14.90
2023-04-21T17:56:52.122Z,14.81
2023-04-21T17:59:31.474Z,14.68
2023-04-21T18:02:00.570Z,14.77
2023-04-21T18:04:34.209Z,14.71
2023-04-21T18:07:02.306Z,14.67
2023-04-21T18:09:36.265Z,14.58
2023-04-21T18:12:04.006Z,14.51
2023-04-21T18:14:32.751Z,14.47
2023-04-21T18:17:03.128Z,14.42
2023-04-21T18:19:30.702Z,14.43
2023-04-21T18:22:05.955Z,14.36
2023-04-21T18:24:40.381Z,14.27
2023-04-21T18:27:08.093Z,14.24
2023-04-21T18:29:35.464Z,14.21
2023-04-21T18:32:08.282Z,14.13
2023-04-21T18:34:36.447Z,14.01
2023-04-21T18:37:08.408Z,14.00
2023-04-21T18:39:41.903Z,14.00
2023-04-21T18:42:12.811Z,13.95
2023-04-21T18:44:42.724Z,13.95
2023-04-21T18:47:10.051Z,13.97
2023-04-21T18:49:42.133Z,13.91
2023-04-21T18:54:54.603Z,13.85
2023-04-21T18:57:31.914Z,13.83
2023-04-21T19:00:03.821Z,13.80
2023-04-21T19:02:39.746Z,13.92
2023-04-21T19:05:07.345Z,13.80
2023-04-21T19:07:35.900Z,13.78
2023-04-21T19:10:08.450Z,13.90
2023-04-21T19:12:35.840Z,13.88
2023-04-21T19:15:14.934Z,13.89
2023-04-21T19:17:47.979Z,13.81
2023-04-21T19:20:15.954Z,13.88
2023-04-21T19:22:56.015Z,13.78
2023-04-21T19:25:25.912Z,13.78
2023-04-21T19:28:03.427Z,13.79
2023-04-21T19:30:32.620Z,13.86
2023-04-21T19:33:00.220Z,13.94
2023-04-21T19:35:32.630Z,13.85
2023-04-21T19:38:00.098Z,13.80
2023-04-21T19:40:39.068Z,13.75
2023-04-21T19:43:15.945Z,13.78
2023-04-21T19:45:53.597Z,13.76
2023-04-21T19:48:23.724Z,13.56
2023-04-21T19:50:57.937Z,13.45
2023-04-21T19:53:27.897Z,13.36
2023-04-21T19:56:14.566Z,13.18
2023-04-21T19:58:47.653Z,13.03
2023-04-21T20:01:42.501Z,13.02
2023-04-21T20:04:12.016Z,12.97
2023-04-21T20:06:40.270Z,12.91
2023-04-21T20:09:11.031Z,12.90
2023-04-21T20:11:44.168Z,12.80
2023-04-21T20:14:21.254Z,12.65
2023-04-21T20:16:48.603Z,12.45
2023-04-21T20:19:33.190Z,12.34
2023-04-21T20:22:00.366Z,12.39
2023-04-21T20:24:34.937Z,12.45
2023-04-21T20:27:02.238Z,12.32
2023-04-21T20:29:31.123Z,12.26
2023-04-21T20:32:06.857Z,12.14
2023-04-21T20:34:36.220Z,12.13
2023-04-21T20:37:12.537Z,12.20
2023-04-21T20:39:39.983Z,12.17
2023-04-21T20:42:13.233Z,12.22
2023-04-21T20:44:43.209Z,12.26
2023-04-21T20:47:18.087Z,12.07
2023-04-21T20:49:50.910Z,11.97
2023-04-21T20:52:19.062Z,11.97
2023-04-21T20:54:51.294Z,11.97
2023-04-21T20:57:27.030Z,11.98
2023-04-21T20:59:54.247Z,11.88
2023-04-21T21:02:27.413Z,11.91
2023-04-21T21:04:54.613Z,12.04
2023-04-21T21:07:24.774Z,12.00
2023-04-21T21:09:54.948Z,11.87
2023-04-21T21:12:25.173Z,11.86
2023-04-21T21:14:55.596Z,11.93
2023-04-21T21:17:25.449Z,11.97
2023-04-21T21:19:53.638Z,11.81
2023-04-21T21:22:20.961Z,11.78
2023-04-21T21:24:50.540Z,11.70
2023-04-21T21:27:18.235Z,11.58
2023-04-21T21:29:49.722Z,11.59
2023-04-21T21:32:42.736Z,11.64
2023-04-21T21:35:11.897Z,11.61
2023-04-21T21:37:40.306Z,11.65
2023-04-21T21:40:08.409Z,11.43
2023-04-21T21:42:37.392Z,11.23
2023-04-21T21:45:09.753Z,11.09
2023-04-21T21:47:41.023Z,11.01
2023-04-21T21:50:14.984Z,11.10
2023-04-21T21:52:42.690Z,10.95
2023-04-21T21:55:13.508Z,10.87
2023-04-21T21:57:44.310Z,10.80
2023-04-21T22:00:16.939Z,10.79
2023-04-21T22:02:45.187Z,10.87
2023-04-21T22:05:13.849Z,10.89
2023-04-21T22:07:43.114Z,10.87
2023-04-21T22:10:12.084Z,10.78
2023-04-21T22:12:39.699Z,10.84
2023-04-21T22:15:16.765Z,10.71
2023-04-21T22:17:45.648Z,10.58
2023-04-21T22:20:13.562Z,10.58
2023-04-21T22:22:41.610Z,10.60
2023-04-21T22:25:11.193Z,10.65
2023-04-21T22:27:39.672Z,10.63
2023-04-21T22:30:21.525Z,10.58
2023-04-21T22:33:24.136Z,10.50
2023-04-21T22:35:52.061Z,10.56
2023-04-21T22:38:24.421Z,10.62
2023-04-21T22:40:56.138Z,10.60
2023-04-21T22:43:24.156Z,10.63
2023-04-21T22:45:52.022Z,10.65
2023-04-21T22:48:27.193Z,10.69
2023-04-21T22:51:04.158Z,10.72
2023-04-21T22:53:31.982Z,10.81
2023-04-21T22:56:00.981Z,10.89
2023-04-21T22:58:30.468Z,10.81
2023-04-21T23:00:57.749Z,10.82
2023-04-21T23:03:27.834Z,10.68
2023-04-21T23:05:57.608Z,10.54
2023-04-21T23:08:27.771Z,10.48
2023-04-21T23:10:55.224Z,10.58
2023-04-21T23:13:22.446Z,10.59
2023-04-21T23:15:50.326Z,10.54
2023-04-21T23:18:23.412Z,10.53
2023-04-21T23:20:56.145Z,10.48
2023-04-21T23:23:27.852Z,10.51
2023-04-21T23:25:55.012Z,10.42
2023-04-21T23:28:23.844Z,10.48
2023-04-21T23:30:59.659Z,10.46
2023-04-21T23:33:35.952Z,10.43
2023-04-21T23:36:06.242Z,10.45
2023-04-21T23:38:33.415Z,10.48
2023-04-21T23:41:05.784Z,10.51
2023-04-21T23:43:38.658Z,10.55
2023-04-21T23:46:06.989Z,10.58
2023-04-21T23:48:36.824Z,10.53
2023-04-21T23:51:05.062Z,10.50
2023-04-21T23:53:39.935Z,10.49
2023-04-21T23:56:12.344Z,10.47
2023-04-21T23:58:42.383Z,10.33
